createdAt,value
2017-04-19T00:01:06.479Z,34.35
2017-04-19T00:02:16.087Z,34.16
2017-04-19T00:03:26.600Z,34.25
2017-04-19T00:04:36.193Z,34.35
2017-04-19T00:05:46.410Z,34.25
2017-04-19T00:06:56.320Z,34.45
2017-04-19T00:08:06.240Z,34.25
2017-04-19T00:09:16.400Z,34.25
2017-04-19T00:10:26.307Z,34.25
2017-04-19T00:11:35.906Z,34.35
2017-04-19T00:12:45.810Z,34.25
2017-04-19T00:13:55.711Z,34.16
2017-04-19T00:15:06.023Z,34.35
2017-04-19T00:16:16.237Z,34.16
2017-04-19T00:17:26.144Z,34.16
2017-04-19T00:18:35.800Z,34.25
2017-04-19T00:19:45.699Z,34.25
2017-04-19T00:20:56.061Z,34.25
2017-04-19T00:22:06.269Z,34.25
2017-04-19T00:23:16.179Z,34.25
2017-04-19T00:24:25.795Z,34.06
2017-04-19T00:25:35.706Z,34.16
2017-04-19T00:26:45.878Z,34.25
2017-04-19T00:27:55.796Z,34.16
2017-04-19T00:29:06.007Z,34.25
2017-04-19T00:30:15.614Z,34.16
2017-04-19T00:31:25.214Z,34.16
2017-04-19T00:32:35.369Z,34.25
2017-04-19T00:33:45.281Z,34.16
2017-04-19T00:34:54.887Z,34.16
2017-04-19T00:36:04.793Z,34.16
2017-04-19T00:37:14.389Z,34.25
2017-04-19T00:38:24.133Z,34.16
2017-04-19T00:39:33.736Z,34.16
2017-04-19T00:40:43.644Z,34.16
2017-04-19T00:41:53.863Z,34.16
2017-04-19T00:43:03.154Z,34.16
2017-04-19T00:44:12.595Z,34.16
2017-04-19T00:45:22.802Z,34.16
2017-04-19T00:46:32.125Z,34.16
2017-04-19T00:47:42.339Z,34.25
2017-04-19T00:48:51.939Z,34.16
2017-04-19T00:50:02.253Z,34.25
2017-04-19T00:51:12.167Z,34.16
2017-04-19T00:52:22.385Z,34.06
2017-04-19T00:53:31.984Z,34.06
2017-04-19T00:54:42.261Z,34.16
2017-04-19T00:55:52.461Z,34.16
2017-04-19T00:57:02.363Z,34.16
2017-04-19T00:58:12.284Z,34.16
2017-04-19T00:59:22.503Z,34.06
2017-04-19T01:00:32.713Z,34.16
2017-04-19T01:01:43.130Z,34.06
2017-04-19T01:02:52.733Z,34.16
2017-04-19T01:04:02.651Z,34.06
2017-04-19T01:05:12.245Z,34.06
2017-04-19T01:06:22.148Z,34.16
2017-04-19T01:07:32.001Z,34.16
2017-04-19T01:08:41.911Z,34.16
2017-04-19T01:09:51.830Z,34.06
2017-04-19T01:11:01.741Z,34.16
2017-04-19T01:12:11.951Z,33.97
2017-04-19T01:13:22.115Z,34.06
2017-04-19T01:14:32.014Z,34.25
2017-04-19T01:15:41.922Z,34.16
2017-04-19T01:16:52.139Z,34.06
2017-04-19T01:18:02.053Z,34.16
2017-04-19T01:19:12.510Z,34.06
2017-04-19T01:20:22.409Z,34.06
2017-04-19T01:21:32.337Z,34.16
2017-04-19T01:22:42.745Z,34.14
2017-04-19T01:23:52.962Z,34.25
2017-04-19T01:25:03.532Z,34.16
2017-04-19T01:26:12.897Z,34.16
2017-04-19T01:27:22.813Z,34.16
2017-04-19T01:28:33.033Z,34.23
2017-04-19T01:29:43.239Z,34.06
2017-04-19T01:30:53.078Z,34.05
2017-04-19T01:32:03.293Z,34.16
2017-04-19T01:33:12.900Z,34.06
2017-04-19T01:34:23.127Z,34.16
2017-04-19T01:35:33.043Z,34.14
2017-04-19T01:36:43.197Z,34.14
2017-04-19T01:37:53.439Z,34.06
2017-04-19T01:39:03.347Z,34.14
2017-04-19T01:40:12.936Z,34.25
2017-04-19T01:41:22.863Z,34.14
2017-04-19T01:42:33.069Z,34.16
2017-04-19T01:43:42.668Z,34.16
2017-04-19T01:44:52.570Z,34.25
2017-04-19T01:46:02.166Z,34.14
2017-04-19T01:47:11.768Z,34.06
2017-04-19T01:48:22.025Z,34.16
2017-04-19T01:49:31.691Z,34.25
2017-04-19T01:50:41.339Z,34.25
2017-04-19T01:51:51.549Z,34.16
2017-04-19T01:53:01.752Z,34.23
2017-04-19T01:54:11.918Z,34.14
2017-04-19T01:55:21.517Z,34.16
2017-04-19T01:56:31.415Z,34.16
2017-04-19T01:57:41.363Z,34.14
2017-04-19T01:58:50.975Z,34.14
2017-04-19T02:00:00.981Z,34.25
2017-04-19T02:01:10.906Z,34.16
2017-04-19T02:02:21.128Z,34.14
2017-04-19T02:03:30.730Z,34.14
2017-04-19T02:04:40.644Z,34.23
2017-04-19T02:05:51.110Z,34.23
2017-04-19T02:07:01.030Z,34.05
2017-04-19T02:08:10.645Z,34.23
2017-04-19T02:09:19.929Z,34.23
2017-04-19T02:10:29.827Z,34.23
2017-04-19T02:11:39.832Z,34.23
2017-04-19T02:12:49.746Z,34.14
2017-04-19T02:13:59.648Z,34.33
2017-04-19T02:15:09.551Z,34.14
2017-04-19T02:16:18.839Z,34.23
2017-04-19T02:17:28.915Z,34.14
2017-04-19T02:18:39.130Z,34.14
2017-04-19T02:19:49.113Z,34.23
2017-04-19T02:20:59.023Z,34.23
2017-04-19T02:22:09.511Z,34.23
2017-04-19T02:23:19.774Z,34.14
2017-04-19T02:24:29.759Z,34.14
2017-04-19T02:25:39.969Z,34.14
2017-04-19T02:26:50.181Z,34.14
2017-04-19T02:28:00.088Z,34.14
2017-04-19T02:29:09.978Z,34.14
2017-04-19T02:30:19.572Z,34.23
2017-04-19T02:31:29.786Z,34.23
2017-04-19T02:32:39.386Z,34.23
2017-04-19T02:33:49.591Z,34.23
2017-04-19T02:34:59.902Z,34.23
2017-04-19T02:36:09.803Z,34.14
2017-04-19T02:37:18.789Z,34.23
2017-04-19T02:38:29.016Z,34.33
2017-04-19T02:39:38.921Z,34.23
2017-04-19T02:40:49.296Z,34.23
2017-04-19T02:41:59.206Z,34.14
2017-04-19T02:43:09.117Z,34.23
2017-04-19T02:44:19.394Z,34.14
2017-04-19T02:45:29.601Z,34.23
2017-04-19T02:46:39.139Z,34.23
2017-04-19T02:47:49.355Z,34.33
2017-04-19T02:48:59.591Z,34.23
2017-04-19T02:50:09.600Z,34.23
2017-04-19T02:51:19.816Z,34.33
2017-04-19T02:52:30.613Z,34.23
2017-04-19T02:53:40.519Z,34.33
2017-04-19T02:54:50.740Z,34.23
2017-04-19T02:56:00.955Z,34.33
2017-04-19T02:57:11.169Z,34.23
2017-04-19T02:58:21.900Z,33.75
2017-04-19T02:59:31.813Z,34.23
2017-04-19T03:00:41.719Z,34.33
2017-04-19T03:01:51.946Z,34.33
2017-04-19T03:03:01.551Z,34.33
2017-04-19T03:04:11.266Z,34.23
2017-04-19T03:05:21.184Z,33.75
2017-04-19T03:06:31.092Z,33.75
2017-04-19T03:07:41.004Z,34.33
2017-04-19T03:08:51.229Z,34.33
2017-04-19T03:10:00.994Z,34.43
2017-04-19T03:11:11.208Z,34.23
2017-04-19T03:12:21.103Z,33.85
2017-04-19T03:13:31.313Z,34.33
2017-04-19T03:14:40.921Z,33.85
2017-04-19T03:15:51.829Z,33.85
2017-04-19T03:17:01.737Z,34.33
2017-04-19T03:18:12.057Z,33.95
2017-04-19T03:19:22.425Z,33.95
2017-04-19T03:20:32.650Z,33.95
2017-04-19T03:21:43.119Z,33.95
2017-04-19T03:22:53.026Z,34.05
2017-04-19T03:24:02.931Z,33.95
2017-04-19T03:25:13.147Z,34.05
2017-04-19T03:26:23.362Z,33.85
2017-04-19T03:27:33.371Z,33.95
2017-04-19T03:28:43.278Z,33.95
2017-04-19T03:29:53.194Z,34.05
2017-04-19T03:31:03.093Z,33.95
2017-04-19T03:32:12.995Z,33.95
2017-04-19T03:33:23.159Z,33.95
2017-04-19T03:34:33.366Z,33.95
2017-04-19T03:35:42.657Z,33.95
2017-04-19T03:36:52.558Z,33.95
2017-04-19T03:38:02.464Z,33.95
2017-04-19T03:39:12.626Z,34.05
2017-04-19T03:40:22.527Z,34.05
2017-04-19T03:41:32.435Z,34.05
2017-04-19T03:42:42.037Z,33.95
2017-04-19T03:43:52.250Z,33.95
2017-04-19T03:45:02.466Z,33.95
2017-04-19T03:46:12.675Z,33.95
2017-04-19T03:47:23.057Z,33.95
2017-04-19T03:48:33.147Z,34.05
2017-04-19T03:49:42.743Z,33.95
2017-04-19T03:50:53.350Z,34.05
2017-04-19T03:52:03.257Z,34.05
2017-04-19T03:53:12.251Z,33.95
2017-04-19T03:54:21.861Z,33.95
2017-04-19T03:55:31.454Z,33.95
2017-04-19T03:56:41.973Z,34.05
2017-04-19T03:57:51.886Z,34.14
2017-04-19T03:59:02.106Z,34.05
2017-04-19T04:00:12.329Z,34.05
2017-04-19T04:01:22.541Z,34.05
2017-04-19T04:02:32.686Z,33.95
2017-04-19T04:03:42.910Z,34.14
2017-04-19T04:04:52.814Z,33.95
2017-04-19T04:06:02.098Z,33.95
2017-04-19T04:07:12.327Z,33.95
2017-04-19T04:08:22.703Z,34.14
2017-04-19T04:09:32.659Z,34.05
2017-04-19T04:10:42.868Z,34.05
2017-04-19T04:11:53.089Z,33.95
2017-04-19T04:13:03.306Z,33.95
2017-04-19T04:14:13.865Z,34.14
2017-04-19T04:15:24.086Z,34.05
2017-04-19T04:16:33.996Z,34.05
2017-04-19T04:17:43.913Z,34.05
2017-04-19T04:18:54.138Z,34.14
2017-04-19T04:20:04.732Z,34.05
2017-04-19T04:21:14.508Z,34.05
2017-04-19T04:22:24.405Z,33.95
2017-04-19T04:23:34.400Z,34.05
2017-04-19T04:24:44.618Z,33.75
2017-04-19T04:25:55.454Z,33.95
2017-04-19T04:27:05.369Z,33.95
2017-04-19T04:28:15.573Z,34.05
2017-04-19T04:29:25.197Z,33.95
2017-04-19T04:30:35.111Z,33.85
2017-04-19T04:31:45.470Z,33.95
2017-04-19T04:32:54.787Z,33.85
2017-04-19T04:34:04.701Z,33.75
2017-04-19T04:35:14.644Z,33.85
2017-04-19T04:36:23.951Z,33.66
2017-04-19T04:37:34.466Z,33.47
2017-04-19T04:38:44.709Z,33.56
2017-04-19T04:39:54.327Z,33.47
2017-04-19T04:41:03.627Z,33.56
2017-04-19T04:42:13.847Z,33.28
2017-04-19T04:43:23.765Z,33.37
2017-04-19T04:44:33.665Z,33
2017-04-19T04:45:43.579Z,33.18
2017-04-19T04:46:53.527Z,33.39
2017-04-19T04:48:03.123Z,33
2017-04-19T04:49:13.448Z,33
2017-04-19T04:50:23.662Z,32.9
2017-04-19T04:51:33.972Z,32.81
2017-04-19T04:52:43.588Z,33
2017-04-19T04:53:53.490Z,33
2017-04-19T04:55:04.052Z,33
2017-04-19T04:56:14.274Z,32.52
2017-04-19T04:57:24.486Z,32.52
2017-04-19T04:58:34.086Z,32.54
2017-04-19T04:59:42.784Z,32.25
2017-04-19T05:00:53.075Z,32.06
2017-04-19T05:02:02.990Z,32.25
2017-04-19T05:03:12.599Z,31.87
2017-04-19T05:04:22.206Z,31.87
2017-04-19T05:05:32.121Z,31.78
2017-04-19T05:06:42.283Z,31.69
2017-04-19T05:07:52.204Z,31.49
2017-04-19T05:09:01.824Z,31.59
2017-04-19T05:10:12.052Z,31.59
2017-04-19T05:11:21.666Z,31.59
2017-04-19T05:12:31.918Z,31.49
2017-04-19T05:13:41.542Z,31.4
2017-04-19T05:14:51.755Z,31.51
2017-04-19T05:16:01.722Z,31.41
2017-04-19T05:17:11.316Z,31.32
2017-04-19T05:18:21.560Z,31.32
2017-04-19T05:19:31.507Z,31.12
2017-04-19T05:20:41.733Z,31.12
2017-04-19T05:21:51.657Z,31.12
2017-04-19T05:23:01.631Z,30.93
2017-04-19T05:24:12.176Z,30.83
2017-04-19T05:25:22.104Z,31.03
2017-04-19T05:26:32.326Z,30.94
2017-04-19T05:27:41.953Z,30.85
2017-04-19T05:28:52.190Z,30.85
2017-04-19T05:30:02.572Z,30.85
2017-04-19T05:31:12.188Z,30.76
2017-04-19T05:32:22.087Z,30.66
2017-04-19T05:33:31.721Z,30.37
2017-04-19T05:34:41.357Z,30.18
2017-04-19T05:35:51.205Z,29.8
2017-04-19T05:37:01.421Z,29.14
2017-04-19T05:38:11.642Z,28.95
2017-04-19T05:39:21.561Z,28.19
2017-04-19T05:40:31.467Z,27.64
2017-04-19T05:41:41.221Z,27.08
2017-04-19T05:42:51.451Z,26.59
2017-04-19T05:44:01.665Z,25.94
2017-04-19T05:45:11.576Z,25.74
2017-04-19T05:46:21.795Z,25.08
2017-04-19T05:47:31.642Z,24.8
2017-04-19T05:48:41.559Z,24.23
2017-04-19T05:49:51.162Z,23.86
2017-04-19T05:51:01.058Z,23.58
2017-04-19T05:52:11.435Z,23.28
2017-04-19T05:53:21.618Z,22.91
2017-04-19T05:54:31.320Z,22.63
2017-04-19T05:55:41.237Z,22.54
2017-04-19T05:56:51.462Z,22.36
2017-04-19T05:58:01.683Z,22.07
2017-04-19T05:59:11.540Z,21.69
2017-04-19T06:00:21.498Z,21.4
2017-04-19T06:01:31.151Z,21.41
2017-04-19T06:02:41.050Z,21.42
2017-04-19T06:03:50.650Z,21.42
2017-04-19T06:05:00.912Z,21.32
2017-04-19T06:06:11.203Z,22.09
2017-04-19T06:07:21.455Z,22.48
2017-04-19T06:08:31.376Z,22.85
2017-04-19T06:09:41.607Z,23.61
2017-04-19T06:10:51.820Z,24.28
2017-04-19T06:12:02.036Z,24.87
2017-04-19T06:13:11.632Z,25.14
2017-04-19T06:14:21.269Z,25.42
2017-04-19T06:15:31.186Z,25.99
2017-04-19T06:16:41.499Z,26.28
2017-04-19T06:17:51.408Z,26.65
2017-04-19T06:19:01.635Z,26.93
2017-04-19T06:20:11.622Z,27.42
2017-04-19T06:21:21.230Z,27.6
2017-04-19T06:22:31.748Z,27.89
2017-04-19T06:23:41.561Z,27.98
2017-04-19T06:24:51.471Z,28.36
2017-04-19T06:26:33.473Z,28.75
2017-04-19T06:27:43.334Z,28.94
2017-04-19T06:28:53.253Z,29.02
2017-04-19T06:30:03.170Z,29.02
2017-04-19T06:31:13.086Z,29.3
2017-04-19T06:32:23.013Z,29.49
2017-04-19T06:33:33.233Z,29.3
2017-04-19T06:34:42.871Z,29.88
2017-04-19T06:35:53.099Z,29.57
2017-04-19T06:37:02.402Z,29.77
2017-04-19T06:38:12.682Z,30.25
2017-04-19T06:39:23.310Z,30.25
2017-04-19T06:40:33.636Z,30.33
2017-04-19T06:41:43.858Z,30.62
2017-04-19T06:42:54.102Z,30.33
2017-04-19T06:44:04.022Z,30.91
2017-04-19T06:45:14.034Z,30.72
2017-04-19T06:46:23.649Z,30.9
2017-04-19T06:47:33.567Z,30.8
2017-04-19T06:48:43.507Z,31.18
2017-04-19T06:49:53.740Z,31.09
2017-04-19T06:51:04.212Z,31.28
2017-04-19T06:52:14.644Z,31.17
2017-04-19T06:53:24.605Z,31.46
2017-04-19T06:54:34.525Z,31.56
2017-04-19T06:55:44.743Z,31.65
2017-04-19T06:56:54.914Z,31.65
2017-04-19T06:58:04.581Z,31.65
2017-04-19T06:59:14.489Z,31.65
2017-04-19T07:00:24.097Z,31.65
2017-04-19T07:01:34.334Z,31.83
2017-04-19T07:02:44.699Z,31.73
2017-04-19T07:03:55.001Z,31.93
2017-04-19T07:05:05.460Z,31.93
2017-04-19T07:06:15.756Z,32.12
2017-04-19T07:07:25.832Z,32.03
2017-04-19T07:08:36.001Z,32.03
2017-04-19T07:09:46.624Z,32.21
2017-04-19T07:10:56.542Z,32.21
2017-04-19T07:12:06.462Z,32.12
2017-04-19T07:13:16.172Z,32.39
2017-04-19T07:14:26.822Z,32.29
2017-04-19T07:15:36.746Z,32.29
2017-04-19T07:16:46.044Z,32.29
2017-04-19T07:17:55.974Z,32.2
2017-04-19T07:19:05.879Z,32.1
2017-04-19T07:20:16.138Z,32.29
2017-04-19T07:21:26.076Z,32.2
2017-04-19T07:22:35.697Z,32.2
2017-04-19T07:23:45.939Z,32.2
2017-04-19T07:24:55.930Z,32.29
2017-04-19T07:26:06.540Z,32.2
2017-04-19T07:27:16.574Z,32.2
2017-04-19T07:28:26.314Z,32.2
2017-04-19T07:29:36.233Z,32.29
2017-04-19T07:30:46.463Z,32.29
2017-04-19T07:31:56.965Z,32.1
2017-04-19T07:33:06.892Z,32.29
2017-04-19T07:34:17.112Z,32.01
2017-04-19T07:35:27.030Z,32.2
2017-04-19T07:36:37.270Z,31.91
2017-04-19T07:37:47.284Z,31.24
2017-04-19T07:38:57.538Z,30.1
2017-04-19T07:40:07.142Z,29.35
2017-04-19T07:41:17.474Z,28.59
2017-04-19T07:42:27.711Z,27.56
2017-04-19T07:43:38.080Z,26.99
2017-04-19T07:44:47.693Z,26.52
2017-04-19T07:45:57.651Z,26.34
2017-04-19T07:47:07.565Z,25.66
2017-04-19T07:48:17.249Z,25.38
2017-04-19T07:49:27.187Z,24.62
2017-04-19T07:50:37.120Z,24.54
2017-04-19T07:51:47.360Z,24.16
2017-04-19T07:52:57.280Z,24.06
2017-04-19T07:54:07.270Z,23.68
2017-04-19T07:55:17.672Z,23.79
2017-04-19T07:56:27.603Z,24.06
2017-04-19T07:57:37.213Z,24.16
2017-04-19T07:58:47.607Z,23.69
2017-04-19T07:59:57.623Z,23.69
2017-04-19T08:01:07.601Z,24.07
2017-04-19T08:02:17.224Z,23.6
2017-04-19T08:03:27.465Z,23.7
2017-04-19T08:04:37.702Z,23.7
2017-04-19T08:05:47.813Z,24.46
2017-04-19T08:06:58.193Z,24.76
2017-04-19T08:08:07.813Z,25.13
2017-04-19T08:09:18.034Z,25.32
2017-04-19T08:10:27.375Z,25.7
2017-04-19T08:11:36.982Z,26.07
2017-04-19T08:12:47.064Z,26.56
2017-04-19T08:13:57.313Z,26.65
2017-04-19T08:15:07.240Z,27.13
2017-04-19T08:16:17.192Z,27.22
2017-04-19T08:17:26.517Z,27.4
2017-04-19T08:18:36.701Z,27.4
2017-04-19T08:19:46.918Z,27.79
2017-04-19T08:20:56.527Z,27.87
2017-04-19T08:22:06.444Z,27.97
2017-04-19T08:23:16.111Z,28.26
2017-04-19T08:24:26.732Z,28.44
2017-04-19T08:25:36.368Z,28.64
2017-04-19T08:26:46.308Z,28.73
2017-04-19T08:27:55.962Z,28.83
2017-04-19T08:29:05.625Z,29.1
2017-04-19T08:30:15.506Z,29.1
2017-04-19T08:31:25.443Z,29.59
2017-04-19T08:32:35.377Z,29.28
2017-04-19T08:33:45.625Z,29.38
2017-04-19T08:34:55.241Z,29.19
2017-04-19T08:36:05.414Z,29.57
2017-04-19T08:37:15.093Z,29.67
2017-04-19T08:38:24.768Z,29.86
2017-04-19T08:39:34.687Z,29.66
2017-04-19T08:40:44.298Z,29.46
2017-04-19T08:41:54.680Z,29.94
2017-04-19T08:43:04.599Z,29.85
2017-04-19T08:44:14.520Z,29.75
2017-04-19T08:45:24.198Z,29.94
2017-04-19T08:46:34.216Z,29.85
2017-04-19T08:47:44.432Z,30.41
2017-04-19T08:48:53.743Z,30.22
2017-04-19T08:50:03.962Z,30.41
2017-04-19T08:51:13.580Z,30.12
2017-04-19T08:52:23.872Z,30.03
2017-04-19T08:53:33.422Z,30.22
2017-04-19T08:54:43.030Z,30.21
2017-04-19T08:55:52.939Z,30.21
2017-04-19T08:57:02.276Z,30.49
2017-04-19T08:58:12.194Z,30.4
2017-04-19T08:59:22.057Z,30.49
2017-04-19T09:00:31.977Z,30.3
2017-04-19T09:01:41.482Z,30.4
2017-04-19T09:02:51.758Z,30.69
2017-04-19T09:04:01.669Z,30.59
2017-04-19T09:05:11.948Z,30.67
2017-04-19T09:06:22.174Z,30.58
2017-04-19T09:07:31.178Z,30.58
2017-04-19T09:08:40.494Z,30.87
2017-04-19T09:09:50.722Z,30.77
2017-04-19T09:11:00.636Z,30.77
2017-04-19T09:12:10.891Z,30.77
2017-04-19T09:13:20.505Z,30.67
2017-04-19T09:14:30.431Z,30.67
2017-04-19T09:15:40.053Z,30.67
2017-04-19T09:16:50.141Z,30.67
2017-04-19T09:17:59.747Z,30.67
2017-04-19T09:19:09.659Z,30.77
2017-04-19T09:20:19.259Z,30.77
2017-04-19T09:21:29.190Z,30.67
2017-04-19T09:22:38.952Z,30.58
2017-04-19T09:23:48.911Z,30.29
2017-04-19T09:24:58.835Z,30.76
2017-04-19T09:26:08.432Z,30.56
2017-04-19T09:27:18.391Z,30.66
2017-04-19T09:28:27.988Z,30.46
2017-04-19T09:29:38.222Z,30.46
2017-04-19T09:30:47.518Z,30.76
2017-04-19T09:31:57.426Z,30.56
2017-04-19T09:33:07.344Z,30.37
2017-04-19T09:34:16.490Z,30.56
2017-04-19T09:35:26.125Z,30.46
2017-04-19T09:36:36.061Z,30.37
2017-04-19T09:37:45.681Z,30.37
2017-04-19T09:38:55.314Z,30.46
2017-04-19T09:40:04.921Z,30.46
2017-04-19T09:41:14.858Z,30.27
2017-04-19T09:42:24.461Z,30.56
2017-04-19T09:43:34.090Z,30.08
2017-04-19T09:44:44.311Z,30.08
2017-04-19T09:45:54.774Z,29.98
2017-04-19T09:47:04.694Z,30.18
2017-04-19T09:48:14.612Z,30.18
2017-04-19T09:49:24.882Z,29.98
2017-04-19T09:50:35.118Z,30.18
2017-04-19T09:51:44.662Z,30.18
2017-04-19T09:52:54.280Z,29.98
2017-04-19T09:54:04.193Z,30.27
2017-04-19T09:55:14.129Z,30.37
2017-04-19T09:56:23.936Z,30.16
2017-04-19T09:57:34.427Z,30.08
2017-04-19T09:58:44.242Z,30.08
2017-04-19T09:59:53.857Z,29.89
2017-04-19T10:01:03.481Z,30.08
2017-04-19T10:02:13.408Z,30.27
2017-04-19T10:03:23.376Z,30.18
2017-04-19T10:04:33.293Z,30.08
2017-04-19T10:05:43.230Z,30.27
2017-04-19T10:06:53.461Z,30.27
2017-04-19T10:08:03.071Z,30.18
2017-04-19T10:09:13.245Z,29.89
2017-04-19T10:10:22.860Z,29.69
2017-04-19T10:11:33.077Z,29.69
2017-04-19T10:12:42.688Z,29.89
2017-04-19T10:13:52.612Z,29.97
2017-04-19T10:15:02.309Z,29.89
2017-04-19T10:16:12.226Z,29.69
2017-04-19T10:17:22.218Z,29.89
2017-04-19T10:18:32.447Z,29.89
2017-04-19T10:19:41.759Z,29.69
2017-04-19T10:20:51.445Z,29.79
2017-04-19T10:22:01.069Z,29.79
2017-04-19T10:23:10.369Z,29.77
2017-04-19T10:24:19.668Z,29.68
2017-04-19T10:25:29.971Z,29.68
2017-04-19T10:26:40.376Z,29.98
2017-04-19T10:27:50.107Z,29.98
2017-04-19T10:29:00.021Z,29.97
2017-04-19T10:30:09.641Z,29.41
2017-04-19T10:31:19.863Z,29.39
2017-04-19T10:32:29.936Z,29.5
2017-04-19T10:33:40.161Z,29.5
2017-04-19T10:34:50.379Z,29.39
2017-04-19T10:35:59.987Z,29.49
2017-04-19T10:37:10.203Z,29.58
2017-04-19T10:38:20.475Z,29.68
2017-04-19T10:39:30.113Z,29.58
2017-04-19T10:40:40.346Z,29.87
2017-04-19T10:41:50.572Z,29.87
2017-04-19T10:43:00.488Z,29.89
2017-04-19T10:44:10.866Z,29.5
2017-04-19T10:45:20.166Z,29.31
2017-04-19T10:46:30.395Z,29.49
2017-04-19T10:47:40.316Z,29.5
2017-04-19T10:48:50.226Z,29.49
2017-04-19T10:49:59.986Z,29.68
2017-04-19T10:51:09.626Z,29.68
2017-04-19T10:52:19.660Z,29.29
2017-04-19T10:53:29.883Z,29.31
2017-04-19T10:54:39.490Z,29.41
2017-04-19T10:55:49.572Z,29.39
2017-04-19T10:56:59.490Z,29.49
2017-04-19T10:58:09.109Z,29.49
2017-04-19T10:59:19.325Z,29.49
2017-04-19T11:00:29.566Z,29.39
2017-04-19T11:01:39.949Z,29.29
2017-04-19T11:02:50.185Z,29.49
2017-04-19T11:03:59.782Z,29.21
2017-04-19T11:05:09.417Z,29.1
2017-04-19T11:06:19.630Z,29.11
2017-04-19T11:07:29.694Z,29.21
2017-04-19T11:08:39.014Z,29.11
2017-04-19T11:09:48.321Z,29.21
2017-04-19T11:10:58.534Z,29.31
2017-04-19T11:12:08.756Z,29.31
2017-04-19T11:13:19.265Z,29.41
2017-04-19T11:14:29.482Z,29.41
2017-04-19T11:15:39.701Z,29.31
2017-04-19T11:16:48.699Z,28.83
2017-04-19T11:17:58.008Z,29.49
2017-04-19T11:19:08.571Z,28.83
2017-04-19T11:20:18.185Z,28.81
2017-04-19T11:21:28.097Z,28.92
2017-04-19T11:22:38.632Z,28.92
2017-04-19T11:23:48.789Z,28.92
2017-04-19T11:24:58.654Z,28.92
2017-04-19T11:26:08.603Z,29.1
2017-04-19T11:27:18.227Z,28.92
2017-04-19T11:28:27.829Z,28.92
2017-04-19T11:29:37.787Z,29
2017-04-19T11:30:47.957Z,29.02
2017-04-19T11:31:57.573Z,28.91
2017-04-19T11:33:07.481Z,29.11
2017-04-19T11:34:17.398Z,29
2017-04-19T11:35:27.031Z,29.1
2017-04-19T11:36:36.971Z,29.02
2017-04-19T11:37:46.895Z,29.11
2017-04-19T11:38:56.536Z,29
2017-04-19T11:40:06.169Z,29.02
2017-04-19T11:41:15.779Z,29.1
2017-04-19T11:42:25.187Z,29.11
2017-04-19T11:43:35.106Z,29.1
2017-04-19T11:44:44.414Z,28.92
2017-04-19T11:45:54.323Z,29.11
2017-04-19T11:47:04.246Z,28.92
2017-04-19T11:48:14.179Z,29.1
2017-04-19T11:49:23.479Z,29.1
2017-04-19T11:50:33.384Z,29.1
2017-04-19T11:51:43.396Z,29.1
2017-04-19T11:52:53.465Z,29
2017-04-19T11:54:03.189Z,29
2017-04-19T11:55:13.132Z,29
2017-04-19T11:56:23.350Z,29
2017-04-19T11:57:32.952Z,29.1
2017-04-19T11:58:42.552Z,29
2017-04-19T11:59:52.808Z,29
2017-04-19T12:01:02.110Z,28.91
2017-04-19T12:02:12.333Z,29
2017-04-19T12:03:22.262Z,28.72
2017-04-19T12:04:32.175Z,28.81
2017-04-19T12:05:42.459Z,28.81
2017-04-19T12:06:51.756Z,28.72
2017-04-19T12:08:01.676Z,28.81
2017-04-19T12:09:11.585Z,28.91
2017-04-19T12:10:21.198Z,28.81
2017-04-19T12:11:31.416Z,28.91
2017-04-19T12:12:41.362Z,28.81
2017-04-19T12:13:50.980Z,28.81
2017-04-19T12:15:00.578Z,28.81
2017-04-19T12:16:09.575Z,28.62
2017-04-19T12:17:19.802Z,28.52
2017-04-19T12:18:29.731Z,28.81
2017-04-19T12:19:39.972Z,28.92
2017-04-19T12:20:50.195Z,28.62
2017-04-19T12:22:00.416Z,28.73
2017-04-19T12:23:10.583Z,28.72
2017-04-19T12:24:20.203Z,28.72
2017-04-19T12:25:29.196Z,28.81
2017-04-19T12:26:38.803Z,28.81
2017-04-19T12:27:48.447Z,28.72
2017-04-19T12:28:58.995Z,28.62
2017-04-19T12:30:09.212Z,28.72
2017-04-19T12:31:18.827Z,28.72
2017-04-19T12:32:28.433Z,28.81
2017-04-19T12:33:38.660Z,28.62
2017-04-19T12:34:48.506Z,28.62
2017-04-19T12:35:58.120Z,28.81
2017-04-19T12:37:08.048Z,28.52
2017-04-19T12:38:17.645Z,28.52
2017-04-19T12:39:27.570Z,28.52
2017-04-19T12:40:37.026Z,28.72
2017-04-19T12:41:46.330Z,28.62
2017-04-19T12:42:55.935Z,28.63
2017-04-19T12:44:05.545Z,28.44
2017-04-19T12:45:15.161Z,28.42
2017-04-19T12:46:24.907Z,28.44
2017-04-19T12:47:34.503Z,28.52
2017-04-19T12:48:44.133Z,28.42
2017-04-19T12:49:53.429Z,28.42
2017-04-19T12:51:03.268Z,28.33
2017-04-19T12:52:13.354Z,28.44
2017-04-19T12:53:22.657Z,28.42
2017-04-19T12:54:32.773Z,28.34
2017-04-19T12:55:42.401Z,28.34
2017-04-19T12:56:52.634Z,28.34
2017-04-19T12:58:02.842Z,28.23
2017-04-19T12:59:12.469Z,28.34
2017-04-19T13:00:21.767Z,28.33
2017-04-19T13:01:31.396Z,28.33
2017-04-19T13:02:41.371Z,28.44
2017-04-19T13:03:51.103Z,28.25
2017-04-19T13:05:01.032Z,28.34
2017-04-19T13:06:10.702Z,28.04
2017-04-19T13:07:20.626Z,28.25
2017-04-19T13:08:29.935Z,28.05
2017-04-19T13:09:39.355Z,27.76
2017-04-19T13:10:49.575Z,27.86
2017-04-19T13:11:59.789Z,27.76
2017-04-19T13:13:09.082Z,27.67
2017-04-19T13:14:18.371Z,27.67
2017-04-19T13:15:28.137Z,27.76
2017-04-19T13:16:38.054Z,27.67
2017-04-19T13:17:47.073Z,27.66
2017-04-19T13:18:56.393Z,27.76
2017-04-19T13:20:06.024Z,27.76
2017-04-19T13:21:15.561Z,27.76
2017-04-19T13:22:25.777Z,27.75
2017-04-19T13:23:35.072Z,27.76
2017-04-19T13:24:45.001Z,27.85
2017-04-19T13:25:55.084Z,27.75
2017-04-19T13:27:05.252Z,27.75
2017-04-19T13:28:15.171Z,27.75
2017-04-19T13:29:24.465Z,27.66
2017-04-19T13:30:34.694Z,28.04
2017-04-19T13:31:44.597Z,27.66
2017-04-19T13:32:54.771Z,27.66
2017-04-19T13:34:05.013Z,28.23
2017-04-19T13:35:14.613Z,28.14
2017-04-19T13:36:23.603Z,27.66
2017-04-19T13:37:33.535Z,27.75
2017-04-19T13:38:42.984Z,27.85
2017-04-19T13:39:52.897Z,27.85
2017-04-19T13:41:02.805Z,27.85
2017-04-19T13:42:12.720Z,27.85
2017-04-19T13:43:22.629Z,27.85
2017-04-19T13:44:32.923Z,27.85
2017-04-19T13:45:42.110Z,28.05
2017-04-19T13:46:51.217Z,27.75
2017-04-19T13:48:00.936Z,27.75
2017-04-19T13:49:10.322Z,27.94
2017-04-19T13:50:20.187Z,27.85
2017-04-19T13:51:29.666Z,27.94
2017-04-19T13:52:39.635Z,27.75
2017-04-19T13:53:49.299Z,27.75
2017-04-19T13:54:59.081Z,27.94
2017-04-19T13:56:09.263Z,27.94
2017-04-19T13:57:18.930Z,27.94
2017-04-19T13:58:28.956Z,27.94
2017-04-19T13:59:38.903Z,27.94
2017-04-19T14:00:48.973Z,27.94
2017-04-19T14:01:59.065Z,27.94
2017-04-19T14:03:08.980Z,27.85
2017-04-19T14:04:18.903Z,27.85
2017-04-19T14:05:28.816Z,27.85
2017-04-19T14:06:39.064Z,28.04
2017-04-19T14:07:48.924Z,27.75
2017-04-19T14:08:59.152Z,27.94
2017-04-19T14:10:09.081Z,27.85
2017-04-19T14:11:18.992Z,27.85
2017-04-19T14:12:28.919Z,27.94
2017-04-19T14:13:38.916Z,27.85
2017-04-19T14:14:48.843Z,27.85
2017-04-19T14:15:58.148Z,27.75
2017-04-19T14:17:07.458Z,27.75
2017-04-19T14:18:16.761Z,27.85
2017-04-19T14:19:27.038Z,27.85
2017-04-19T14:20:37.255Z,27.75
2017-04-19T14:21:46.873Z,27.85
2017-04-19T14:22:56.810Z,27.75
2017-04-19T14:24:07.204Z,27.75
2017-04-19T14:25:17.211Z,27.85
2017-04-19T14:26:26.954Z,27.85
2017-04-19T14:27:36.894Z,27.66
2017-04-19T14:28:46.511Z,27.66
2017-04-19T14:29:56.446Z,27.66
2017-04-19T14:31:06.050Z,27.66
2017-04-19T14:32:15.667Z,27.75
2017-04-19T14:33:25.895Z,27.85
2017-04-19T14:34:35.818Z,27.85
2017-04-19T14:35:46.094Z,27.85
2017-04-19T14:36:56.646Z,27.94
2017-04-19T14:38:05.981Z,27.85
2017-04-19T14:39:15.905Z,27.66
2017-04-19T14:40:26.130Z,27.56
2017-04-19T14:41:36.058Z,27.46
2017-04-19T14:42:46.325Z,27.66
2017-04-19T14:43:56.245Z,27.66
2017-04-19T14:45:06.164Z,27.75
2017-04-19T14:46:16.086Z,27.56
2017-04-19T14:47:26.312Z,27.56
2017-04-19T14:48:36.887Z,27.56
2017-04-19T14:49:46.813Z,27.66
2017-04-19T14:50:56.778Z,27.56
2017-04-19T14:52:06.752Z,27.75
2017-04-19T14:53:16.673Z,27.75
2017-04-19T14:54:27.602Z,27.75
2017-04-19T14:55:37.217Z,27.56
2017-04-19T14:56:47.220Z,27.75
2017-04-19T14:57:57.442Z,27.56
2017-04-19T14:59:07.059Z,27.75
2017-04-19T15:00:17.575Z,27.75
2017-04-19T15:01:27.498Z,27.66
2017-04-19T15:02:37.716Z,27.85
2017-04-19T15:03:47.635Z,27.75
2017-04-19T15:04:57.246Z,27.66